Time;durP1;ratioP1;P1;durP2;ratioP2;P2;SDS_P1;SDS_P2;PMS_P1;PMS_P2;Temp;Humidity;BMP_temperature;BMP_pressure;BME280_temperature;BME280_humidity;BME280_pressure;Samples;Min_cycle;Max_cycle;Signal;HPM_P1;HPM_P2
2021/01/23 00:02:27;;;;;;;12.05;10.13;;;;;;;8.28;50.80;99067.63;1805883;78;21200;-70
2021/01/23 00:04:55;;;;;;;11.28;10.05;;;;;;;8.28;50.77;99066.31;1805020;78;21161;-70
2021/01/23 00:07:22;;;;;;;11.48;9.95;;;;;;;8.27;50.79;99070.79;1814993;77;21736;-70
2021/01/23 00:09:50;;;;;;;13.72;10.93;;;;;;;8.28;50.77;99066.31;1788966;78;21137;-69
2021/01/23 00:12:17;;;;;;;13.38;10.35;;;;;;;8.27;50.77;99068.64;1802329;78;21677;-69
2021/01/23 00:14:44;;;;;;;12.60;9.85;;;;;;;8.26;50.76;99066.47;1801771;78;21271;-71
2021/01/23 00:17:12;;;;;;;11.85;9.78;;;;;;;8.25;50.77;99075.42;1813418;78;21173;-70
2021/01/23 00:19:40;;;;;;;11.68;10.18;;;;;;;8.24;50.77;99072.44;1807543;78;21376;-70
2021/01/23 00:22:07;;;;;;;13.35;9.85;;;;;;;8.25;50.78;99066.67;1815183;78;21581;-71
2021/01/23 00:24:35;;;;;;;11.50;9.40;;;;;;;8.22;50.76;99073.11;1802580;78;21180;-71
2021/01/23 00:27:03;;;;;;;11.80;10.00;;;;;;;8.22;50.78;99071.78;1776406;78;21146;-70
2021/01/23 00:29:31;;;;;;;12.00;10.45;;;;;;;8.21;50.80;99075.44;1797153;78;21164;-71
2021/01/23 00:31:58;;;;;;;11.53;9.70;;;;;;;8.20;50.81;99069.80;1795083;78;21364;-70
2021/01/23 00:34:29;;;;;;;11.68;10.28;;;;;;;8.20;50.81;99081.71;1782675;79;21609;-71
2021/01/23 00:36:57;;;;;;;12.13;9.65;;;;;;;8.20;50.81;99079.57;1781653;80;21158;-70
2021/01/23 00:39:26;;;;;;;12.35;10.20;;;;;;;8.20;50.80;99076.42;1759732;80;21155;-68
2021/01/23 00:41:53;;;;;;;13.28;10.45;;;;;;;8.20;50.80;99070.31;1764799;80;21163;-69
2021/01/23 00:44:21;;;;;;;11.75;10.20;;;;;;;8.19;50.78;99073.94;1759658;80;22313;-70
2021/01/23 00:46:48;;;;;;;12.47;10.43;;;;;;;8.19;50.79;99073.94;1770766;80;21562;-70
2021/01/23 00:49:16;;;;;;;12.90;10.05;;;;;;;8.19;50.78;99068.64;1720571;83;21185;-70
2021/01/23 00:51:44;;;;;;;13.13;10.65;;;;;;;8.19;50.79;99059.38;1719820;82;21643;-69
2021/01/23 00:54:12;;;;;;;12.25;10.30;;;;;;;8.18;50.79;99056.42;1720056;82;21183;-71
2021/01/23 00:56:43;;;;;;;11.50;10.05;;;;;;;8.17;50.77;99052.97;1720868;82;21188;-69
2021/01/23 00:59:12;;;;;;;11.28;9.83;;;;;;;8.16;50.78;99053.94;1737328;82;21931;-69
2021/01/23 01:01:42;;;;;;;13.30;10.78;;;;;;;8.16;50.77;99046.00;1732701;82;21155;-73
2021/01/23 01:04:13;;;;;;;12.33;10.57;;;;;;;8.16;50.78;99046.00;1719451;82;21128;-70
2021/01/23 01:06:40;;;;;;;12.13;9.18;;;;;;;8.16;50.78;99053.94;1728983;82;21199;-69
2021/01/23 01:09:08;;;;;;;11.65;10.20;;;;;;;8.16;50.78;99053.12;1725099;82;21372;-71
2021/01/23 01:11:36;;;;;;;10.48;9.28;;;;;;;8.15;50.80;99062.05;1725712;82;21147;-69
2021/01/23 01:14:05;;;;;;;11.18;8.98;;;;;;;8.16;50.78;99055.77;1730319;82;21633;-69
2021/01/23 01:16:32;;;;;;;11.18;9.25;;;;;;;8.15;50.81;99060.25;1721869;82;21196;-69
2021/01/23 01:19:00;;;;;;;11.48;9.75;;;;;;;8.07;50.80;99044.37;1721094;82;21135;-70
2021/01/23 01:21:28;;;;;;;11.38;9.35;;;;;;;8.14;50.79;99061.23;1731070;82;22325;-69
2021/01/23 01:23:56;;;;;;;10.32;9.00;;;;;;;8.14;50.80;99069.16;1724178;82;21563;-69
2021/01/23 01:26:24;;;;;;;12.10;9.73;;;;;;;8.14;50.80;99073.64;1731142;82;21569;-68
2021/01/23 01:28:51;;;;;;;12.80;9.78;;;;;;;8.14;50.82;99068.34;1718593;82;21177;-70
2021/01/23 01:31:21;;;;;;;12.70;9.18;;;;;;;8.14;50.77;99074.96;1731297;81;21203;-69
2021/01/23 01:33:50;;;;;;;13.00;10.35;;;;;;;8.14;50.77;99069.67;1802025;78;21437;-69
2021/01/23 01:36:19;;;;;;;12.18;9.35;;;;;;;8.14;50.78;99073.13;1780930;79;21169;-68
2021/01/23 01:38:46;;;;;;;9.68;8.50;;;;;;;8.14;50.78;99065.70;1803191;78;21129;-69
2021/01/23 01:41:15;;;;;;;12.33;10.23;;;;;;;8.13;50.78;99056.95;1794227;78;21169;-70
2021/01/23 01:43:45;;;;;;;11.20;9.00;;;;;;;8.14;50.78;99061.23;1797899;78;21177;-70
2021/01/23 01:46:15;;;;;;;11.80;9.80;;;;;;;8.13;50.79;99045.52;1799230;78;21377;-70
2021/01/23 01:48:47;;;;;;;12.03;9.40;;;;;;;8.13;50.77;99050.33;1753189;80;21212;-72
2021/01/23 01:51:16;;;;;;;11.30;9.20;;;;;;;8.12;50.78;99047.34;1800739;78;21157;-71
2021/01/23 01:53:44;;;;;;;11.93;9.38;;;;;;;8.12;50.78;99042.56;1792013;78;21541;-70
2021/01/23 01:56:13;;;;;;;13.98;10.93;;;;;;;8.12;50.78;99043.88;1803905;78;21129;-70
2021/01/23 01:58:41;;;;;;;11.63;9.33;;;;;;;8.11;50.79;99045.68;1809060;78;21464;-70
2021/01/23 02:01:10;;;;;;;10.82;8.98;;;;;;;8.12;50.78;99055.28;1804109;78;21181;-70
2021/01/23 02:04:12;;;;;;;11.70;9.38;;;;;;;8.11;50.79;99062.87;1808434;78;21169;-71
2021/01/23 02:07:19;;;;;;;12.43;9.53;;;;;;;8.11;50.78;99060.23;1807530;78;21130;-70
2021/01/23 02:09:55;;;;;;;11.35;9.90;;;;;;;8.10;50.80;99052.48;1812329;78;21186;-71
2021/01/23 02:12:53;;;;;;;11.93;9.65;;;;;;;8.05;50.85;99056.47;1809419;78;21384;-69
2021/01/23 02:15:22;;;;;;;11.40;9.50;;;;;;;8.04;50.86;99056.13;1812353;78;21720;-69
2021/01/23 02:17:55;;;;;;;12.33;9.83;;;;;;;8.02;50.91;99056.79;1787212;78;21428;-70
2021/01/23 02:21:10;;;;;;;13.10;9.65;;;;;;;8.02;50.92;99052.83;1807341;78;21180;-71
2021/01/23 02:23:45;;;;;;;;;;;;;;;8.02;50.93;99042.75;1797708;78;21629;-70
2021/01/23 02:26:51;;;;;;;10.05;8.45;;;;;;;8.00;50.95;99042.91;1792788;78;21204;-69
2021/01/23 02:29:35;;;;;;;12.15;9.73;;;;;;;7.93;51.05;99050.36;1812741;78;21696;-69
2021/01/23 02:32:03;;;;;;;12.37;9.95;;;;;;;7.92;51.10;99049.55;1773252;78;21212;-70
2021/01/23 02:34:33;;;;;;;12.13;10.00;;;;;;;7.92;51.09;99054.84;1771865;80;21181;-70
2021/01/23 02:37:02;;;;;;;15.88;10.40;;;;;;;7.93;51.09;99068.38;1765127;80;21179;-69
2021/01/23 02:39:29;;;;;;;12.85;10.40;;;;;;;7.94;51.07;99055.97;1753259;80;22267;-71
2021/01/23 02:41:56;;;;;;;11.63;10.20;;;;;;;7.96;51.07;99058.79;1762036;80;21139;-71
2021/01/23 02:44:26;;;;;;;12.00;9.53;;;;;;;7.97;51.07;99062.25;1763982;80;21586;-71
2021/01/23 02:46:58;;;;;;;11.40;9.20;;;;;;;7.98;51.03;99069.21;1767910;80;21187;-70
2021/01/23 02:49:26;;;;;;;11.53;9.53;;;;;;;7.98;51.03;99064.73;1763844;80;21145;-71
2021/01/23 02:52:25;;;;;;;13.08;10.20;;;;;;;7.99;51.01;99063.73;1770418;80;21411;-70
2021/01/23 02:55:06;;;;;;;14.30;9.78;;;;;;;8.00;50.98;99075.97;1759436;80;21167;-70
2021/01/23 02:57:34;;;;;;;10.85;9.38;;;;;;;7.99;50.97;99087.53;1760974;80;21153;-71
2021/01/23 03:00:08;;;;;;;12.40;10.15;;;;;;;8.00;50.96;99080.45;1771517;80;21181;-71
2021/01/23 03:02:38;;;;;;;13.08;10.35;;;;;;;8.00;50.97;99065.90;1773892;80;21159;-71
2021/01/23 03:05:07;;;;;;;13.93;10.32;;;;;;;8.00;50.97;99068.04;1760486;80;22631;-70
2021/01/23 03:07:34;;;;;;;13.30;10.13;;;;;;;8.00;50.96;99074.65;1720415;83;21210;-69
2021/01/23 03:10:07;;;;;;;15.32;10.05;;;;;;;8.00;50.97;99060.61;1722049;81;21192;-71
2021/01/23 03:12:35;;;;;;;14.85;10.82;;;;;;;8.01;50.96;99078.93;1712361;81;21212;-71
2021/01/23 03:15:05;;;;;;;13.00;9.90;;;;;;;8.01;50.94;99083.41;1732688;81;21173;-70
2021/01/23 03:17:34;;;;;;;12.68;9.85;;;;;;;8.01;50.94;99077.61;1723343;81;21363;-70
2021/01/23 03:20:03;;;;;;;11.68;9.98;;;;;;;8.02;50.93;99083.24;1708876;82;21159;-69
2021/01/23 03:22:31;;;;;;;13.60;10.10;;;;;;;8.01;50.92;99080.25;1723944;82;21190;-69
2021/01/23 03:25:00;;;;;;;12.98;9.50;;;;;;;8.02;50.93;99077.13;1722115;82;21113;-71
2021/01/23 03:27:27;;;;;;;11.97;9.80;;;;;;;8.02;50.91;99075.81;1724720;82;21167;-71
2021/01/23 03:29:59;;;;;;;12.07;9.90;;;;;;;8.02;50.91;99075.31;1717010;82;21216;-70
2021/01/23 03:32:26;;;;;;;11.15;9.65;;;;;;;8.03;50.87;99079.59;1720812;81;22140;-69
2021/01/23 03:34:54;;;;;;;12.28;10.10;;;;;;;8.03;50.87;99073.48;1766898;79;21133;-70
2021/01/23 03:37:21;;;;;;;13.68;10.10;;;;;;;8.04;50.83;99077.28;1747553;81;21625;-71
2021/01/23 03:39:48;;;;;;;11.30;9.10;;;;;;;8.04;50.83;99070.67;1736856;81;21145;-69
2021/01/23 03:42:16;;;;;;;11.48;8.95;;;;;;;8.04;50.80;99072.00;1725918;81;21628;-72
2021/01/23 03:44:44;;;;;;;11.85;9.98;;;;;;;8.05;50.82;99075.45;1738960;79;21162;-70
2021/01/23 03:47:13;;;;;;;13.10;9.85;;;;;;;8.04;50.77;99069.34;1761167;79;21156;-70
2021/01/23 03:49:42;;;;;;;11.18;9.68;;;;;;;8.05;50.78;99073.66;1752190;79;21125;-71
2021/01/23 03:52:09;;;;;;;12.03;9.60;;;;;;;8.04;50.79;99070.67;1764302;79;21145;-69
2021/01/23 03:54:40;;;;;;;10.82;9.50;;;;;;;8.04;50.78;99067.21;1763410;79;21380;-72
2021/01/23 03:57:10;;;;;;;10.32;8.35;;;;;;;8.04;50.78;99074.64;1755590;79;21178;-72
2021/01/23 03:59:39;;;;;;;9.98;8.45;;;;;;;8.05;50.76;99071.48;1726445;80;21208;-72
2021/01/23 04:02:08;;;;;;;11.28;9.50;;;;;;;8.03;50.77;99058.42;1758172;79;21209;-71
2021/01/23 04:04:35;;;;;;;10.72;9.13;;;;;;;8.03;50.75;99058.93;1750744;79;21110;-71
2021/01/23 04:07:06;;;;;;;12.68;9.78;;;;;;;8.03;50.76;99065.04;1757876;79;22692;-72
2021/01/23 04:09:35;;;;;;;11.73;9.45;;;;;;;8.03;50.75;99071.65;1734024;80;21185;-73
2021/01/23 04:12:07;;;;;;;11.40;8.70;;;;;;;8.02;50.75;99072.66;1754520;79;21100;-70
2021/01/23 04:14:34;;;;;;;10.68;9.10;;;;;;;8.03;50.76;99077.45;1742225;79;21618;-70
2021/01/23 04:17:01;;;;;;;11.33;8.83;;;;;;;8.03;50.76;99078.27;1759121;79;21193;-71
2021/01/23 04:19:29;;;;;;;10.80;8.95;;;;;;;8.02;50.73;99069.20;1764049;79;21290;-71
2021/01/23 04:21:57;;;;;;;11.38;9.15;;;;;;;8.02;50.75;99073.98;1759573;79;21122;-69
2021/01/23 04:24:24;;;;;;;12.43;9.78;;;;;;;8.03;50.75;99068.19;1750103;79;21158;-71
2021/01/23 04:26:52;;;;;;;11.38;9.50;;;;;;;8.02;50.75;99076.63;1750499;79;21136;-71
2021/01/23 04:29:21;;;;;;;11.33;8.85;;;;;;;8.01;50.72;99077.61;1737123;81;21164;-71
2021/01/23 04:31:48;;;;;;;12.28;8.98;;;;;;;8.02;50.74;99073.16;1751785;79;21447;-70
2021/01/23 04:34:16;;;;;;;11.45;9.20;;;;;;;8.02;50.76;99076.63;1740043;80;21160;-70
2021/01/23 04:36:44;;;;;;;12.37;9.03;;;;;;;8.01;50.74;99068.86;1740934;80;21187;-71
2021/01/23 04:39:12;;;;;;;10.95;8.85;;;;;;;8.01;50.77;99066.21;1766847;80;21184;-71
2021/01/23 04:41:40;;;;;;;12.30;9.05;;;;;;;8.01;50.72;99068.35;1740512;81;21180;-71
2021/01/23 04:44:07;;;;;;;10.88;8.68;;;;;;;8.01;50.75;99066.21;1739471;81;21572;-72
2021/01/23 04:46:35;;;;;;;13.65;10.32;;;;;;;8.01;50.74;99076.28;1742441;81;21192;-71
2021/01/23 04:49:03;;;;;;;12.25;9.75;;;;;;;8.01;50.74;99076.28;1755214;80;21170;-71
2021/01/23 04:51:31;;;;;;;9.75;8.73;;;;;;;8.01;50.74;99066.21;1738420;81;21485;-72
2021/01/23 04:53:59;;;;;;;11.15;9.50;;;;;;;8.01;50.73;99068.86;1735209;80;21119;-71
2021/01/23 04:56:27;;;;;;;10.82;8.70;;;;;;;8.00;50.72;99069.36;1771912;80;21153;-71
2021/01/23 04:58:55;;;;;;;11.65;9.45;;;;;;;8.00;50.73;99069.36;1768830;80;21224;-72
2021/01/23 05:01:24;;;;;;;11.78;9.13;;;;;;;8.00;50.73;99074.65;1736713;80;21159;-71
2021/01/23 05:04:02;;;;;;;11.57;9.40;;;;;;;8.00;50.72;99072.00;1780559;80;21169;-71
2021/01/23 05:06:29;;;;;;;11.00;9.28;;;;;;;8.00;50.70;99080.45;1743277;80;21144;-72
2021/01/23 05:08:57;;;;;;;12.63;10.00;;;;;;;7.94;50.70;99069.19;1754631;80;21322;-71
2021/01/23 05:11:44;;;;;;;11.97;9.85;;;;;;;8.00;50.71;99077.80;1754050;80;21153;-70
2021/01/23 05:14:15;;;;;;;11.50;9.00;;;;;;;7.99;50.71;99078.27;1779333;80;21278;-71
2021/01/23 05:16:43;;;;;;;12.43;9.55;;;;;;;7.98;50.74;99078.47;1742372;80;21163;-70
2021/01/23 05:19:10;;;;;;;10.88;8.73;;;;;;;7.98;50.76;99083.76;1737823;80;21705;-71
2021/01/23 05:21:38;;;;;;;10.13;8.40;;;;;;;7.96;50.75;99082.59;1749458;80;21404;-71
2021/01/23 05:24:12;;;;;;;11.68;9.68;;;;;;;7.97;50.75;99083.41;1741898;81;21137;-71
2021/01/23 05:26:40;;;;;;;11.15;8.73;;;;;;;7.97;50.74;99089.52;1734592;81;21183;-72
2021/01/23 05:29:13;;;;;;;11.60;9.38;;;;;;;7.96;50.75;99083.92;1746436;80;21249;-71
2021/01/23 05:31:42;;;;;;;12.53;9.73;;;;;;;7.97;50.75;99088.70;1748743;80;21166;-72
2021/01/23 05:34:30;;;;;;;11.95;8.95;;;;;;;7.96;50.77;99087.03;1726102;81;21355;-72
2021/01/23 05:36:59;;;;;;;12.00;9.15;;;;;;;7.94;50.80;99074.00;1765554;80;21201;-72
2021/01/23 05:39:48;;;;;;;11.60;9.23;;;;;;;7.92;50.81;99073.82;1772640;80;21145;-72
2021/01/23 05:42:16;;;;;;;14.03;10.15;;;;;;;7.92;50.83;99070.70;1812185;78;21144;-73
2021/01/23 05:45:06;;;;;;;14.15;10.43;;;;;;;7.92;50.81;99086.57;1795329;78;21149;-72
2021/01/23 05:47:34;;;;;;;13.62;9.85;;;;;;;7.91;50.82;99084.91;1777707;78;21379;-72
2021/01/23 05:50:03;;;;;;;11.83;9.48;;;;;;;7.90;50.84;99079.78;1804725;78;21181;-72
2021/01/23 05:52:31;;;;;;;13.45;10.05;;;;;;;7.88;50.87;99083.43;1805194;78;21177;-72
2021/01/23 05:55:01;;;;;;;13.55;10.38;;;;;;;7.89;50.84;99094.83;1789722;78;21090;-71
2021/01/23 05:57:30;;;;;;;14.20;10.30;;;;;;;7.89;50.86;99098.80;1808964;78;21153;-72
2021/01/23 05:59:57;;;;;;;13.28;10.23;;;;;;;7.90;50.86;99098.29;1797695;78;23603;-72
2021/01/23 06:02:25;;;;;;;15.05;10.40;;;;;;;7.90;50.86;99099.14;1811360;78;21192;-71
2021/01/23 06:04:53;;;;;;;12.35;10.45;;;;;;;7.91;50.86;99098.12;1810651;78;21164;-72
2021/01/23 06:07:47;;;;;;;14.05;10.08;;;;;;;7.91;50.85;99103.42;1799887;78;21161;-72
2021/01/23 06:10:34;;;;;;;15.13;10.28;;;;;;;7.91;50.82;99098.12;1809757;78;21101;-71
2021/01/23 06:13:03;;;;;;;13.30;9.75;;;;;;;7.89;50.83;99108.05;1794183;78;21493;-73
2021/01/23 06:15:38;;;;;;;13.05;10.13;;;;;;;7.89;50.86;99117.31;1803655;78;21589;-72
2021/01/23 06:18:25;;;;;;;14.05;10.20;;;;;;;7.90;50.86;99114.16;1812590;78;21116;-72
2021/01/23 06:20:55;;;;;;;15.25;10.38;;;;;;;7.90;50.84;99114.16;1803033;78;21148;-72
2021/01/23 06:23:43;;;;;;;12.55;9.98;;;;;;;7.88;50.87;99124.42;1793030;77;21184;-72
2021/01/23 06:26:10;;;;;;;12.95;9.88;;;;;;;7.88;50.87;99116.48;1810376;78;21388;-71
2021/01/23 06:28:46;;;;;;;11.97;10.10;;;;;;;7.90;50.88;99119.45;1812041;78;21180;-72
2021/01/23 06:31:26;;;;;;;14.68;10.25;;;;;;;7.90;50.87;99115.48;1807202;78;21220;-72
2021/01/23 06:33:54;;;;;;;13.05;9.78;;;;;;;7.91;50.86;99108.70;1815258;78;21176;-73
2021/01/23 06:36:22;;;;;;;12.63;9.63;;;;;;;7.91;50.87;99123.25;1822158;78;21359;-72
2021/01/23 06:39:09;;;;;;;12.15;9.70;;;;;;;7.91;50.87;99128.55;1815967;78;22365;-72
2021/01/23 06:41:38;;;;;;;12.25;10.80;;;;;;;7.92;50.85;99131.53;1821221;78;21153;-71
2021/01/23 06:44:19;;;;;;;13.68;10.25;;;;;;;7.94;50.84;99131.34;1811312;78;21168;-71
2021/01/23 06:46:55;;;;;;;13.15;9.73;;;;;;;7.94;50.86;99133.52;1808210;78;21191;-71
2021/01/23 06:49:24;;;;;;;12.82;10.43;;;;;;;7.96;50.83;99132.00;1802680;78;21128;-72
2021/01/23 06:52:04;;;;;;;12.82;10.05;;;;;;;7.97;50.86;99125.73;1815235;78;23595;-70
2021/01/23 06:54:32;;;;;;;15.20;11.15;;;;;;;7.97;50.83;99115.16;1811799;78;21187;-69
2021/01/23 06:56:59;;;;;;;12.93;10.03;;;;;;;7.99;50.81;99123.75;1819103;78;21371;-70
2021/01/23 06:59:34;;;;;;;12.03;9.48;;;;;;;8.00;50.82;99130.20;1796822;78;21578;-71
2021/01/23 07:02:08;;;;;;;12.90;9.28;;;;;;;8.02;50.79;99134.83;1817248;78;21593;-70
2021/01/23 07:04:48;;;;;;;13.38;10.68;;;;;;;8.04;50.82;99124.91;1815243;78;22204;-70
2021/01/23 07:07:16;;;;;;;12.03;9.18;;;;;;;8.05;50.79;99121.28;1805219;78;21144;-70
2021/01/23 07:09:55;;;;;;;13.22;9.35;;;;;;;8.05;50.78;99117.31;1821121;78;21152;-72
2021/01/23 07:15:30;;;;;;;12.23;9.93;;;;;;;8.15;50.75;99113.64;1847223;77;26806;-69
2021/01/23 07:17:58;;;;;;;12.85;9.90;;;;;;;8.13;50.70;99107.69;1839241;77;21167;-71
2021/01/23 07:20:25;;;;;;;11.78;10.28;;;;;;;8.14;50.70;99129.20;1820435;77;21366;-69
2021/01/23 07:22:54;;;;;;;11.93;9.38;;;;;;;8.17;50.65;99119.58;1844044;77;21186;-69
2021/01/23 07:25:21;;;;;;;12.18;10.38;;;;;;;8.20;50.64;99120.59;1844535;77;21639;-69
2021/01/23 07:27:49;;;;;;;13.70;9.78;;;;;;;8.22;50.58;99124.70;1782850;77;21103;-69
2021/01/23 07:30:18;;;;;;;13.60;10.68;;;;;;;8.26;50.53;99127.34;1823171;78;21589;-70
2021/01/23 07:32:47;;;;;;;10.43;9.15;;;;;;;8.30;50.49;99133.63;1810208;78;21365;-70
2021/01/23 07:35:16;;;;;;;12.65;10.18;;;;;;;8.33;50.45;99128.83;1823381;78;21044;-70
2021/01/23 07:37:51;;;;;;;12.88;10.03;;;;;;;8.37;50.35;99131.47;1822384;77;21620;-71
2021/01/23 07:40:24;;;;;;;13.10;10.15;;;;;;;8.40;50.33;99139.08;1823388;77;21156;-69
2021/01/23 07:42:52;;;;;;;13.77;10.60;;;;;;;8.42;50.28;99134.47;1805302;78;21046;-69
2021/01/23 07:45:20;;;;;;;11.35;10.15;;;;;;;8.45;50.27;99135.44;1823555;77;21454;-69
2021/01/23 07:49:06;;;;;;;12.88;9.18;;;;;;;8.54;50.18;99123.02;1795309;79;27579;-69
2021/01/23 07:51:34;;;;;;;13.93;10.00;;;;;;;8.50;50.18;99139.40;1789242;79;21160;-69
2021/01/23 07:54:07;;;;;;;14.85;10.32;;;;;;;8.52;50.12;99133.44;1742042;81;21275;-70
2021/01/23 07:56:35;;;;;;;;;;;;;;;8.56;50.08;99140.07;1751353;81;21191;-68
2021/01/23 07:59:02;;;;;;;12.55;10.48;;;;;;;8.59;50.06;99146.33;1751199;81;20523;-71
2021/01/23 08:01:29;;;;;;;13.62;10.15;;;;;;;8.52;50.15;99147.52;1744651;81;21215;-71
2021/01/23 08:03:58;;;;;;;12.40;10.18;;;;;;;8.55;50.16;99152.97;1793030;79;21203;-71
2021/01/23 08:06:26;;;;;;;12.47;9.88;;;;;;;8.58;50.10;99153.96;1791026;79;21390;-72
2021/01/23 08:08:53;;;;;;;12.07;10.15;;;;;;;8.61;50.08;99153.10;1793603;79;21111;-73
2021/01/23 08:11:41;;;;;;;12.00;10.32;;;;;;;8.65;50.03;99152.27;1787650;78;21152;-74
2021/01/23 08:14:14;;;;;;;12.23;9.63;;;;;;;8.66;49.98;99150.78;1794743;79;21648;-72
2021/01/23 08:16:54;;;;;;;11.75;9.60;;;;;;;8.68;49.97;99153.77;1791122;79;21126;-73
2021/01/23 08:19:22;;;;;;;12.90;9.18;;;;;;;8.71;49.95;99150.77;1803676;79;21372;-72
2021/01/23 08:22:09;;;;;;;12.13;9.85;;;;;;;8.73;49.92;99145.64;1798382;79;21159;-74
2021/01/23 08:24:36;;;;;;;14.30;10.43;;;;;;;8.76;49.88;99148.44;1728714;82;21174;-72
2021/01/23 08:27:22;;;;;;;14.30;9.88;;;;;;;8.79;49.87;99157.38;1784212;79;21224;-71
2021/01/23 08:29:52;;;;;;;12.50;10.28;;;;;;;8.82;49.90;99155.19;1792868;79;21159;-71
2021/01/23 08:32:20;;;;;;;11.97;10.03;;;;;;;8.87;50.01;99157.84;1788082;79;21833;-69
2021/01/23 08:34:47;;;;;;;13.62;10.32;;;;;;;8.93;50.02;99158.48;1801116;79;21643;-71
2021/01/23 08:37:15;;;;;;;13.43;10.25;;;;;;;8.99;49.99;99160.44;1775916;79;21132;-70
2021/01/23 08:39:47;;;;;;;12.55;9.90;;;;;;;9.03;49.93;99149.81;1766273;80;21164;-73
2021/01/23 08:42:15;;;;;;;13.67;11.07;;;;;;;9.10;49.89;99147.29;1793696;79;21668;-72
2021/01/23 08:44:43;;;;;;;11.20;9.55;;;;;;;9.15;49.83;99140.47;1788452;79;21295;-73
2021/01/23 08:47:10;;;;;;;12.68;9.58;;;;;;;9.21;49.81;99137.16;1787938;79;21210;-73
2021/01/23 08:49:37;;;;;;;11.85;9.88;;;;;;;9.29;49.74;99140.26;1744698;79;21701;-71
2021/01/23 08:52:05;;;;;;;13.05;10.65;;;;;;;9.36;49.69;99133.23;1765923;78;21144;-70
2021/01/23 08:54:32;;;;;;;11.95;9.93;;;;;;;9.44;49.65;99136.34;1710216;83;21158;-72
2021/01/23 08:57:00;;;;;;;10.50;8.65;;;;;;;9.50;49.62;99135.63;1765134;79;21215;-74
2021/01/23 08:59:27;;;;;;;13.53;10.65;;;;;;;9.58;49.48;99134.27;1786952;79;21196;-74
2021/01/23 09:01:55;;;;;;;11.97;9.70;;;;;;;9.67;49.42;99140.84;1757301;79;21167;-74
2021/01/23 09:04:22;;;;;;;11.97;10.35;;;;;;;9.75;49.28;99138.11;1763090;79;21164;-75
2021/01/23 09:06:50;;;;;;;10.63;8.88;;;;;;;9.83;49.13;99147.33;1764109;80;21166;-75
2021/01/23 09:09:18;;;;;;;11.28;9.50;;;;;;;9.93;48.97;99157.22;1762956;80;21639;-77
2021/01/23 09:11:45;;;;;;;11.60;9.65;;;;;;;10.02;48.79;99147.34;1766930;79;21143;-77
2021/01/23 09:14:13;;;;;;;11.73;9.58;;;;;;;10.13;48.66;99144.78;1770058;79;21127;-76
2021/01/23 09:16:41;;;;;;;12.63;9.48;;;;;;;10.20;48.51;99136.43;1753607;80;21171;-80
2021/01/23 09:19:10;;;;;;;12.43;10.55;;;;;;;10.30;48.36;99139.67;1764065;79;22490;-79
2021/01/23 09:21:56;;;;;;;12.50;9.98;;;;;;;10.40;48.23;99136.23;1720240;81;21232;-81
2021/01/23 09:24:23;;;;;;;11.35;9.43;;;;;;;10.50;48.12;99128.52;1710895;81;21202;-81
2021/01/23 09:26:51;;;;;;;11.97;9.90;;;;;;;10.44;47.99;99102.19;1699891;83;22565;-76
2021/01/23 09:29:18;;;;;;;11.03;9.18;;;;;;;10.70;47.87;99126.13;1722624;81;21196;-77
2021/01/23 09:31:45;;;;;;;11.95;9.13;;;;;;;10.79;47.73;99119.20;1726382;81;21637;-77
2021/01/23 09:34:14;;;;;;;12.82;10.00;;;;;;;10.90;47.63;99113.11;1731042;81;21210;-82
2021/01/23 09:36:42;;;;;;;13.95;10.45;;;;;;;11.00;47.54;99118.95;1723158;81;21216;-83
2021/01/23 09:39:09;;;;;;;12.13;9.80;;;;;;;11.10;47.38;99111.50;1726055;81;21108;-78
2021/01/23 09:41:37;;;;;;;12.37;9.98;;;;;;;11.20;47.30;99112.53;1729865;81;21617;-76
2021/01/23 09:44:08;;;;;;;11.43;9.30;;;;;;;11.31;47.18;99111.23;1714264;82;21172;-79
2021/01/23 09:46:35;;;;;;;13.18;10.50;;;;;;;11.40;47.13;99116.23;1724140;81;21381;-80
2021/01/23 09:49:04;;;;;;;12.63;9.53;;;;;;;11.50;47.05;99117.77;1714335;81;21184;-81
2021/01/23 09:51:32;;;;;;;12.30;9.90;;;;;;;11.61;46.99;99130.06;1714484;81;21229;-79
2021/01/23 09:53:59;;;;;;;11.95;9.60;;;;;;;11.70;46.94;99123.28;1717683;81;21212;-73
2021/01/23 09:56:26;;;;;;;12.75;10.55;;;;;;;11.79;46.83;99127.47;1716980;81;21648;-72
2021/01/23 09:58:53;;;;;;;11.30;9.78;;;;;;;11.87;46.72;99127.32;1726968;81;21876;-73
2021/01/23 10:01:20;;;;;;;12.18;9.83;;;;;;;11.99;46.60;99131.65;1726793;81;21895;-74
2021/01/23 10:03:48;;;;;;;11.80;9.68;;;;;;;12.09;46.52;99130.83;1709624;81;21165;-74
2021/01/23 10:06:15;;;;;;;11.70;9.63;;;;;;;12.19;46.41;99126.50;1717974;81;21601;-75
2021/01/23 10:08:43;;;;;;;10.68;8.78;;;;;;;12.31;46.30;99132.92;1720289;81;21181;-73
2021/01/23 10:11:10;;;;;;;12.07;9.48;;;;;;;12.42;46.40;99136.06;1708839;81;21890;-72
2021/01/23 10:13:37;;;;;;;10.38;8.95;;;;;;;12.52;46.23;99129.38;1722592;81;21598;-70
2021/01/23 10:16:05;;;;;;;12.30;9.58;;;;;;;12.63;46.49;99126.66;1724492;81;21128;-74
2021/01/23 10:18:35;;;;;;;11.40;9.35;;;;;;;12.74;46.63;99125.30;1705736;81;21196;-72
2021/01/23 10:21:07;;;;;;;11.15;8.98;;;;;;;12.85;46.58;99126.59;1719258;83;21179;-71
2021/01/23 10:23:34;;;;;;;12.47;10.13;;;;;;;12.95;46.65;99127.86;1691224;82;21857;-72
2021/01/23 10:26:02;;;;;;;10.40;9.15;;;;;;;13.07;46.66;99128.62;1715315;82;21172;-72
2021/01/23 10:28:30;;;;;;;10.55;9.03;;;;;;;13.16;46.58;99126.91;1715808;82;21637;-71
2021/01/23 10:30:59;;;;;;;11.00;9.13;;;;;;;13.27;46.63;99118.02;1710051;82;21192;-71
2021/01/23 10:33:26;;;;;;;11.75;8.95;;;;;;;13.37;47.38;99075.82;1696713;82;21167;-70
2021/01/23 10:35:53;;;;;;;14.65;9.28;;;;;;;13.73;57.58;99115.50;1694195;82;21220;-69
2021/01/23 10:38:20;;;;;;;12.07;7.53;;;;;;;14.62;58.36;99115.23;1707504;82;21237;-70
2021/01/23 10:40:48;;;;;;;12.65;9.10;;;;;;;15.52;57.12;99109.38;1714829;82;21126;-70
2021/01/23 10:43:16;;;;;;;13.18;9.73;;;;;;;16.29;55.52;99111.09;1705463;82;21172;-69
2021/01/23 10:45:43;;;;;;;17.45;10.65;;;;;;;16.96;53.88;99110.39;1711940;82;21153;-70
2021/01/23 10:48:11;;;;;;;16.75;11.00;;;;;;;17.56;52.36;99100.19;1717746;81;21344;-70
2021/01/23 10:50:39;;;;;;;17.42;10.95;;;;;;;18.09;51.10;99108.80;1721583;81;21216;-70
2021/01/23 10:53:06;;;;;;;14.70;11.20;;;;;;;18.54;50.05;99108.73;1709102;83;21176;-69
2021/01/23 10:55:34;;;;;;;16.20;11.95;;;;;;;18.95;48.83;99110.96;1716897;82;21168;-69
2021/01/23 10:58:02;;;;;;;14.35;11.68;;;;;;;19.31;47.67;99102.25;1706780;83;21172;-70
2021/01/23 11:00:29;;;;;;;16.95;11.80;;;;;;;19.61;46.63;99100.65;1706985;81;21185;-69
2021/01/23 11:02:56;;;;;;;13.68;11.70;;;;;;;19.90;45.70;99093.89;1712129;82;22116;-71
2021/01/23 11:05:24;;;;;;;15.55;11.43;;;;;;;20.16;44.92;99087.80;1698138;81;21176;-71
2021/01/23 11:07:53;;;;;;;15.18;11.70;;;;;;;20.39;44.15;99085.44;1719213;81;21172;-70
2021/01/23 11:10:22;;;;;;;17.87;13.68;;;;;;;20.63;43.42;99077.17;1711618;82;21164;-70
2021/01/23 11:12:50;;;;;;;15.50;12.68;;;;;;;20.84;42.77;99074.17;1712179;81;21804;-70
2021/01/23 11:15:17;;;;;;;16.90;13.08;;;;;;;21.05;42.14;99069.02;1705506;81;21169;-70
2021/01/23 11:17:45;;;;;;;15.13;12.98;;;;;;;21.25;41.53;99065.20;1720693;81;21181;-70
2021/01/23 11:20:14;;;;;;;17.90;13.05;;;;;;;21.47;41.00;99060.30;1692818;83;21187;-70
2021/01/23 11:22:42;;;;;;;15.80;13.30;;;;;;;21.75;40.38;99046.49;1714232;83;21372;-71
2021/01/23 11:25:13;;;;;;;16.95;13.95;;;;;;;22.05;39.73;99046.97;1708102;81;23710;-70
2021/01/23 11:27:40;;;;;;;16.75;13.70;;;;;;;22.37;39.08;99015.81;1719465;81;21598;-70
2021/01/23 11:30:10;;;;;;;15.03;13.38;;;;;;;22.70;38.47;99018.66;1692714;83;21638;-70
2021/01/23 11:32:38;;;;;;;17.82;13.85;;;;;;;23.02;37.78;99024.41;1699747;81;21183;-70
2021/01/23 11:35:07;;;;;;;15.40;13.58;;;;;;;23.33;37.05;99028.05;1712500;81;21237;-71
2021/01/23 11:37:35;;;;;;;14.75;12.28;;;;;;;23.64;36.49;99032.13;1705731;81;23618;-69
2021/01/23 11:40:05;;;;;;;14.85;12.70;;;;;;;23.91;36.11;99055.44;1718613;81;22124;-68
2021/01/23 11:42:33;;;;;;;15.72;12.47;;;;;;;24.11;36.23;99062.21;1709479;81;21193;-68
2021/01/23 11:45:03;;;;;;;14.18;12.50;;;;;;;24.20;35.73;99060.29;1716188;81;21193;-69
2021/01/23 11:47:32;;;;;;;13.28;11.55;;;;;;;24.14;35.35;99074.41;1710483;81;21208;-68
2021/01/23 11:49:59;;;;;;;14.18;12.68;;;;;;;23.97;35.20;99066.58;1708307;82;21452;-70